EKVL weather

CLOSED Vaerlose Air Base
Kirke Vaerlose, Capital Region, Denmark

Public forecast

Using degrees Celsius for public forecast. Weather courtesy of forecast.io.

METAR (pilot weather report)

Closest report is Copenhagen Roskilde Airport, 12.8 nm (23.7 km) SSW. Retrieved 2019/09/18 05:50 UTC (38 minutes ago):

EKRK 180550Z AUTO 26006KT 9999 NCD 08/07 Q1016

TAF (pilot weather forecast)

Closest forecast is Copenhagen Kastrup Airport, 14.5 nm (26.8 km) SE. Retrieved 2019/09/18 06:31 UTC (0 seconds ago):

TAF EKCH 180508Z 1806/1906 31012KT 9999 SCT030 TEMPO 1806/1824 SCT020CB